sensor_id;sensor_type;location;lat;lon;timestamp;P1;durP1;ratioP1;P2;durP2;ratioP2
51925;SDS011;37952;51.938;15.480;2023-04-03T00:02:41;3.00;;;1.30;;
51925;SDS011;37952;51.938;15.480;2023-04-03T00:05:45;2.00;;;1.20;;
51925;SDS011;37952;51.938;15.480;2023-04-03T00:08:49;3.40;;;0.80;;
51925;SDS011;37952;51.938;15.480;2023-04-03T00:15:11;1.20;;;1.10;;
51925;SDS011;37952;51.938;15.480;2023-04-03T00:18:14;2.10;;;1.10;;
51925;SDS011;37952;51.938;15.480;2023-04-03T00:21:17;1.80;;;1.10;;
51925;SDS011;37952;51.938;15.480;2023-04-03T00:24:20;4.20;;;1.30;;
51925;SDS011;37952;51.938;15.480;2023-04-03T00:27:22;1.90;;;1.30;;
51925;SDS011;37952;51.938;15.480;2023-04-03T00:30:25;1.40;;;1.30;;
51925;SDS011;37952;51.938;15.480;2023-04-03T00:33:28;4.50;;;1.50;;
51925;SDS011;37952;51.938;15.480;2023-04-03T00:36:31;1.10;;;1.00;;
51925;SDS011;37952;51.938;15.480;2023-04-03T00:39:33;1.70;;;1.30;;
51925;SDS011;37952;51.938;15.480;2023-04-03T00:42:36;1.80;;;1.20;;
51925;SDS011;37952;51.938;15.480;2023-04-03T00:45:41;1.40;;;0.90;;
51925;SDS011;37952;51.938;15.480;2023-04-03T00:48:50;3.00;;;1.40;;
51925;SDS011;37952;51.938;15.480;2023-04-03T00:51:53;2.10;;;1.10;;
51925;SDS011;37952;51.938;15.480;2023-04-03T00:54:58;1.10;;;1.10;;
51925;SDS011;37952;51.938;15.480;2023-04-03T00:58:04;1.60;;;1.20;;
51925;SDS011;37952;51.938;15.480;2023-04-03T01:01:10;4.10;;;1.30;;
51925;SDS011;37952;51.938;15.480;2023-04-03T01:04:36;2.50;;;1.30;;
51925;SDS011;37952;51.938;15.480;2023-04-03T01:07:40;1.90;;;1.50;;
51925;SDS011;37952;51.938;15.480;2023-04-03T01:10:43;3.90;;;1.50;;
51925;SDS011;37952;51.938;15.480;2023-04-03T01:13:46;3.90;;;1.60;;
51925;SDS011;37952;51.938;15.480;2023-04-03T01:16:54;2.20;;;1.60;;
51925;SDS011;37952;51.938;15.480;2023-04-03T01:20:02;1.90;;;1.60;;
51925;SDS011;37952;51.938;15.480;2023-04-03T01:23:48;1.90;;;1.30;;
51925;SDS011;37952;51.938;15.480;2023-04-03T01:27:12;4.20;;;0.90;;
51925;SDS011;37952;51.938;15.480;2023-04-03T01:30:16;3.70;;;1.20;;
51925;SDS011;37952;51.938;15.480;2023-04-03T01:33:20;2.10;;;1.30;;
51925;SDS011;37952;51.938;15.480;2023-04-03T01:36:24;2.60;;;1.10;;
51925;SDS011;37952;51.938;15.480;2023-04-03T01:39:29;1.80;;;1.00;;
51925;SDS011;37952;51.938;15.480;2023-04-03T01:42:32;2.10;;;1.00;;
51925;SDS011;37952;51.938;15.480;2023-04-03T01:45:34;1.10;;;0.90;;
51925;SDS011;37952;51.938;15.480;2023-04-03T01:48:37;1.00;;;0.90;;
51925;SDS011;37952;51.938;15.480;2023-04-03T01:51:40;1.40;;;0.90;;
51925;SDS011;37952;51.938;15.480;2023-04-03T01:54:42;2.30;;;1.10;;
51925;SDS011;37952;51.938;15.480;2023-04-03T01:57:45;2.30;;;0.80;;
51925;SDS011;37952;51.938;15.480;2023-04-03T02:00:48;1.10;;;1.00;;
51925;SDS011;37952;51.938;15.480;2023-04-03T02:03:50;1.00;;;0.90;;
51925;SDS011;37952;51.938;15.480;2023-04-03T02:06:53;1.20;;;0.80;;
51925;SDS011;37952;51.938;15.480;2023-04-03T02:09:56;2.70;;;0.90;;
51925;SDS011;37952;51.938;15.480;2023-04-03T02:12:58;4.60;;;0.90;;
51925;SDS011;37952;51.938;15.480;2023-04-03T02:16:10;2.70;;;0.80;;
51925;SDS011;37952;51.938;15.480;2023-04-03T02:19:15;2.20;;;1.00;;
51925;SDS011;37952;51.938;15.480;2023-04-03T02:22:17;1.10;;;1.00;;
51925;SDS011;37952;51.938;15.480;2023-04-03T02:25:20;3.30;;;1.00;;
51925;SDS011;37952;51.938;15.480;2023-04-03T02:28:23;3.10;;;1.00;;
51925;SDS011;37952;51.938;15.480;2023-04-03T02:31:26;1.20;;;1.00;;
51925;SDS011;37952;51.938;15.480;2023-04-03T02:34:29;1.40;;;1.00;;
51925;SDS011;37952;51.938;15.480;2023-04-03T02:37:32;1.30;;;0.80;;
51925;SDS011;37952;51.938;15.480;2023-04-03T02:40:34;1.60;;;1.20;;
51925;SDS011;37952;51.938;15.480;2023-04-03T02:43:44;3.40;;;0.90;;
51925;SDS011;37952;51.938;15.480;2023-04-03T02:49:49;2.10;;;0.70;;
51925;SDS011;37952;51.938;15.480;2023-04-03T02:52:52;2.40;;;0.90;;
51925;SDS011;37952;51.938;15.480;2023-04-03T02:55:54;3.40;;;1.20;;
51925;SDS011;37952;51.938;15.480;2023-04-03T02:58:57;1.20;;;1.10;;
51925;SDS011;37952;51.938;15.480;2023-04-03T03:01:59;1.50;;;1.10;;
51925;SDS011;37952;51.938;15.480;2023-04-03T03:05:02;2.60;;;1.00;;
51925;SDS011;37952;51.938;15.480;2023-04-03T03:08:05;2.20;;;1.10;;
51925;SDS011;37952;51.938;15.480;2023-04-03T03:11:08;1.70;;;1.10;;
51925;SDS011;37952;51.938;15.480;2023-04-03T03:14:12;1.70;;;1.30;;
51925;SDS011;37952;51.938;15.480;2023-04-03T03:17:14;3.00;;;1.60;;
51925;SDS011;37952;51.938;15.480;2023-04-03T03:20:17;1.90;;;1.20;;
51925;SDS011;37952;51.938;15.480;2023-04-03T03:23:20;1.00;;;0.90;;
51925;SDS011;37952;51.938;15.480;2023-04-03T03:26:24;3.50;;;1.30;;
51925;SDS011;37952;51.938;15.480;2023-04-03T03:29:33;1.00;;;0.90;;
51925;SDS011;37952;51.938;15.480;2023-04-03T03:32:35;1.30;;;1.00;;
51925;SDS011;37952;51.938;15.480;2023-04-03T03:35:38;2.00;;;1.20;;
51925;SDS011;37952;51.938;15.480;2023-04-03T03:38:41;2.40;;;1.10;;
51925;SDS011;37952;51.938;15.480;2023-04-03T03:41:44;2.00;;;1.50;;
51925;SDS011;37952;51.938;15.480;2023-04-03T03:48:19;3.90;;;1.70;;
51925;SDS011;37952;51.938;15.480;2023-04-03T03:51:23;3.60;;;1.30;;
51925;SDS011;37952;51.938;15.480;2023-04-03T03:54:25;1.30;;;0.90;;
51925;SDS011;37952;51.938;15.480;2023-04-03T03:57:28;1.90;;;1.30;;
51925;SDS011;37952;51.938;15.480;2023-04-03T04:00:31;2.00;;;1.20;;
51925;SDS011;37952;51.938;15.480;2023-04-03T04:03:33;2.00;;;1.20;;
51925;SDS011;37952;51.938;15.480;2023-04-03T04:06:36;3.30;;;1.10;;
51925;SDS011;37952;51.938;15.480;2023-04-03T04:09:39;5.70;;;1.60;;
51925;SDS011;37952;51.938;15.480;2023-04-03T04:12:42;1.40;;;1.30;;
51925;SDS011;37952;51.938;15.480;2023-04-03T04:15:45;2.60;;;1.90;;
51925;SDS011;37952;51.938;15.480;2023-04-03T04:18:47;2.70;;;1.60;;
51925;SDS011;37952;51.938;15.480;2023-04-03T04:21:50;1.80;;;1.40;;
51925;SDS011;37952;51.938;15.480;2023-04-03T04:24:52;2.60;;;1.40;;
51925;SDS011;37952;51.938;15.480;2023-04-03T04:27:55;1.20;;;1.10;;
51925;SDS011;37952;51.938;15.480;2023-04-03T04:30:58;2.60;;;1.40;;
51925;SDS011;37952;51.938;15.480;2023-04-03T04:34:00;2.50;;;1.00;;
51925;SDS011;37952;51.938;15.480;2023-04-03T04:37:03;1.80;;;1.70;;
51925;SDS011;37952;51.938;15.480;2023-04-03T04:40:06;2.90;;;1.40;;
51925;SDS011;37952;51.938;15.480;2023-04-03T04:43:09;1.50;;;1.20;;
51925;SDS011;37952;51.938;15.480;2023-04-03T04:46:13;2.30;;;2.10;;
51925;SDS011;37952;51.938;15.480;2023-04-03T04:49:15;2.50;;;2.20;;
51925;SDS011;37952;51.938;15.480;2023-04-03T04:52:18;2.00;;;1.80;;
51925;SDS011;37952;51.938;15.480;2023-04-03T04:55:21;1.90;;;1.70;;
51925;SDS011;37952;51.938;15.480;2023-04-03T04:58:23;2.70;;;1.50;;
51925;SDS011;37952;51.938;15.480;2023-04-03T05:01:26;2.60;;;2.10;;
51925;SDS011;37952;51.938;15.480;2023-04-03T05:04:28;4.60;;;2.30;;
51925;SDS011;37952;51.938;15.480;2023-04-03T05:07:31;3.50;;;2.60;;
51925;SDS011;37952;51.938;15.480;2023-04-03T05:10:34;4.00;;;2.60;;
51925;SDS011;37952;51.938;15.480;2023-04-03T05:13:37;5.80;;;2.40;;
51925;SDS011;37952;51.938;15.480;2023-04-03T05:16:39;3.90;;;2.10;;
51925;SDS011;37952;51.938;15.480;2023-04-03T05:19:42;3.70;;;2.20;;
51925;SDS011;37952;51.938;15.480;2023-04-03T05:22:46;2.70;;;2.10;;
51925;SDS011;37952;51.938;15.480;2023-04-03T05:25:48;1.60;;;1.40;;
51925;SDS011;37952;51.938;15.480;2023-04-03T05:28:51;3.30;;;1.40;;
51925;SDS011;37952;51.938;15.480;2023-04-03T05:31:54;1.50;;;1.40;;
51925;SDS011;37952;51.938;15.480;2023-04-03T05:34:56;2.00;;;1.30;;
51925;SDS011;37952;51.938;15.480;2023-04-03T05:38:02;1.70;;;1.50;;
51925;SDS011;37952;51.938;15.480;2023-04-03T05:41:05;5.20;;;1.30;;
51925;SDS011;37952;51.938;15.480;2023-04-03T05:44:07;2.40;;;1.70;;
51925;SDS011;37952;51.938;15.480;2023-04-03T05:47:10;3.30;;;2.20;;
51925;SDS011;37952;51.938;15.480;2023-04-03T05:50:13;3.10;;;1.80;;
51925;SDS011;37952;51.938;15.480;2023-04-03T05:53:21;1.90;;;1.40;;
51925;SDS011;37952;51.938;15.480;2023-04-03T05:56:27;3.70;;;1.30;;
51925;SDS011;37952;51.938;15.480;2023-04-03T05:59:30;1.40;;;1.30;;
51925;SDS011;37952;51.938;15.480;2023-04-03T06:02:38;1.80;;;1.60;;
51925;SDS011;37952;51.938;15.480;2023-04-03T06:05:41;5.60;;;1.50;;
51925;SDS011;37952;51.938;15.480;2023-04-03T06:08:44;3.80;;;1.30;;
51925;SDS011;37952;51.938;15.480;2023-04-03T06:11:46;2.20;;;1.20;;
51925;SDS011;37952;51.938;15.480;2023-04-03T06:14:49;2.30;;;1.30;;
51925;SDS011;37952;51.938;15.480;2023-04-03T06:17:52;1.20;;;1.10;;
51925;SDS011;37952;51.938;15.480;2023-04-03T06:20:54;1.10;;;1.00;;
51925;SDS011;37952;51.938;15.480;2023-04-03T06:23:57;2.10;;;1.20;;
51925;SDS011;37952;51.938;15.480;2023-04-03T06:27:00;2.20;;;1.40;;
51925;SDS011;37952;51.938;15.480;2023-04-03T06:30:03;1.80;;;1.70;;
51925;SDS011;37952;51.938;15.480;2023-04-03T06:33:07;1.40;;;1.20;;
51925;SDS011;37952;51.938;15.480;2023-04-03T06:36:10;1.60;;;1.20;;
51925;SDS011;37952;51.938;15.480;2023-04-03T06:39:16;2.70;;;1.20;;
51925;SDS011;37952;51.938;15.480;2023-04-03T06:42:23;1.90;;;1.50;;
51925;SDS011;37952;51.938;15.480;2023-04-03T06:45:26;2.30;;;1.40;;
51925;SDS011;37952;51.938;15.480;2023-04-03T06:48:29;5.00;;;2.70;;
51925;SDS011;37952;51.938;15.480;2023-04-03T06:51:33;2.50;;;1.80;;
51925;SDS011;37952;51.938;15.480;2023-04-03T06:54:36;2.60;;;2.30;;
51925;SDS011;37952;51.938;15.480;2023-04-03T06:57:39;2.60;;;1.60;;
51925;SDS011;37952;51.938;15.480;2023-04-03T07:00:42;2.40;;;1.40;;
51925;SDS011;37952;51.938;15.480;2023-04-03T07:03:46;3.30;;;1.90;;
51925;SDS011;37952;51.938;15.480;2023-04-03T07:06:50;1.30;;;1.10;;
51925;SDS011;37952;51.938;15.480;2023-04-03T07:09:53;3.80;;;1.70;;
51925;SDS011;37952;51.938;15.480;2023-04-03T07:12:55;1.90;;;1.40;;
51925;SDS011;37952;51.938;15.480;2023-04-03T07:15:58;1.20;;;1.10;;
51925;SDS011;37952;51.938;15.480;2023-04-03T07:19:01;1.70;;;1.60;;
51925;SDS011;37952;51.938;15.480;2023-04-03T07:22:08;2.20;;;1.40;;
51925;SDS011;37952;51.938;15.480;2023-04-03T07:25:13;1.70;;;1.60;;
51925;SDS011;37952;51.938;15.480;2023-04-03T07:28:16;1.70;;;1.60;;
51925;SDS011;37952;51.938;15.480;2023-04-03T07:31:20;1.60;;;1.40;;
51925;SDS011;37952;51.938;15.480;2023-04-03T07:34:23;3.00;;;1.20;;
51925;SDS011;37952;51.938;15.480;2023-04-03T07:37:26;0.90;;;0.90;;
51925;SDS011;37952;51.938;15.480;2023-04-03T07:40:28;2.00;;;1.20;;
51925;SDS011;37952;51.938;15.480;2023-04-03T07:43:32;1.20;;;1.10;;
51925;SDS011;37952;51.938;15.480;2023-04-03T07:46:36;3.50;;;1.50;;
51925;SDS011;37952;51.938;15.480;2023-04-03T07:49:40;3.40;;;1.10;;
51925;SDS011;37952;51.938;15.480;2023-04-03T07:52:43;1.40;;;1.20;;
51925;SDS011;37952;51.938;15.480;2023-04-03T07:55:47;1.70;;;1.10;;
51925;SDS011;37952;51.938;15.480;2023-04-03T07:58:51;1.30;;;1.10;;
51925;SDS011;37952;51.938;15.480;2023-04-03T08:01:54;1.60;;;1.30;;
51925;SDS011;37952;51.938;15.480;2023-04-03T08:04:57;1.70;;;1.30;;
51925;SDS011;37952;51.938;15.480;2023-04-03T08:08:01;2.90;;;1.40;;
51925;SDS011;37952;51.938;15.480;2023-04-03T08:11:03;1.80;;;1.20;;
51925;SDS011;37952;51.938;15.480;2023-04-03T08:14:08;1.50;;;1.40;;
51925;SDS011;37952;51.938;15.480;2023-04-03T08:17:13;2.20;;;1.70;;
51925;SDS011;37952;51.938;15.480;2023-04-03T08:20:16;2.10;;;1.70;;
51925;SDS011;37952;51.938;15.480;2023-04-03T08:23:19;2.20;;;2.00;;
51925;SDS011;37952;51.938;15.480;2023-04-03T08:26:22;1.40;;;1.30;;
51925;SDS011;37952;51.938;15.480;2023-04-03T08:29:25;2.50;;;1.40;;
51925;SDS011;37952;51.938;15.480;2023-04-03T08:32:28;1.80;;;1.70;;
51925;SDS011;37952;51.938;15.480;2023-04-03T08:35:30;2.10;;;1.70;;
51925;SDS011;37952;51.938;15.480;2023-04-03T08:38:33;2.40;;;1.50;;
51925;SDS011;37952;51.938;15.480;2023-04-03T08:41:39;3.10;;;1.60;;
51925;SDS011;37952;51.938;15.480;2023-04-03T08:45:06;1.20;;;1.10;;
51925;SDS011;37952;51.938;15.480;2023-04-03T08:51:31;1.60;;;1.30;;
51925;SDS011;37952;51.938;15.480;2023-04-03T08:54:46;1.20;;;1.00;;
51925;SDS011;37952;51.938;15.480;2023-04-03T09:04:38;1.20;;;1.00;;
51925;SDS011;37952;51.938;15.480;2023-04-03T09:07:47;1.60;;;1.10;;
51925;SDS011;37952;51.938;15.480;2023-04-03T09:11:06;1.80;;;1.20;;
51925;SDS011;37952;51.938;15.480;2023-04-03T09:21:14;1.90;;;1.30;;
51925;SDS011;37952;51.938;15.480;2023-04-03T09:24:23;1.20;;;0.90;;
51925;SDS011;37952;51.938;15.480;2023-04-03T09:27:27;3.00;;;1.00;;
51925;SDS011;37952;51.938;15.480;2023-04-03T09:30:33;1.10;;;0.80;;
51925;SDS011;37952;51.938;15.480;2023-04-03T09:33:36;1.20;;;0.90;;
51925;SDS011;37952;51.938;15.480;2023-04-03T09:39:49;1.80;;;1.70;;
51925;SDS011;37952;51.938;15.480;2023-04-03T09:42:54;1.50;;;1.40;;
51925;SDS011;37952;51.938;15.480;2023-04-03T09:46:16;1.80;;;1.60;;
51925;SDS011;37952;51.938;15.480;2023-04-03T09:49:22;1.40;;;1.10;;
51925;SDS011;37952;51.938;15.480;2023-04-03T09:52:26;2.40;;;1.20;;
51925;SDS011;37952;51.938;15.480;2023-04-03T09:55:29;1.50;;;1.40;;
51925;SDS011;37952;51.938;15.480;2023-04-03T09:58:33;1.80;;;1.60;;
51925;SDS011;37952;51.938;15.480;2023-04-03T10:05:33;1.40;;;1.00;;
51925;SDS011;37952;51.938;15.480;2023-04-03T10:08:38;1.30;;;1.20;;
51925;SDS011;37952;51.938;15.480;2023-04-03T10:12:02;9.30;;;1.60;;
51925;SDS011;37952;51.938;15.480;2023-04-03T10:15:13;2.40;;;1.80;;
51925;SDS011;37952;51.938;15.480;2023-04-03T10:18:32;4.50;;;1.10;;
51925;SDS011;37952;51.938;15.480;2023-04-03T10:21:54;1.30;;;0.90;;
51925;SDS011;37952;51.938;15.480;2023-04-03T10:25:25;1.00;;;1.00;;
51925;SDS011;37952;51.938;15.480;2023-04-03T10:32:42;1.20;;;1.10;;
51925;SDS011;37952;51.938;15.480;2023-04-03T10:42:44;4.30;;;1.20;;
51925;SDS011;37952;51.938;15.480;2023-04-03T10:59:21;1.50;;;1.40;;
51925;SDS011;37952;51.938;15.480;2023-04-03T11:02:36;1.90;;;1.60;;
51925;SDS011;37952;51.938;15.480;2023-04-03T11:05:45;1.00;;;1.00;;
51925;SDS011;37952;51.938;15.480;2023-04-03T11:08:53;2.80;;;1.40;;
51925;SDS011;37952;51.938;15.480;2023-04-03T11:12:10;3.40;;;1.30;;
51925;SDS011;37952;51.938;15.480;2023-04-03T11:15:19;2.90;;;1.60;;
51925;SDS011;37952;51.938;15.480;2023-04-03T11:18:26;1.90;;;1.80;;
51925;SDS011;37952;51.938;15.480;2023-04-03T11:21:37;1.80;;;1.40;;
51925;SDS011;37952;51.938;15.480;2023-04-03T11:24:46;2.20;;;1.30;;
51925;SDS011;37952;51.938;15.480;2023-04-03T11:28:13;3.10;;;1.30;;
51925;SDS011;37952;51.938;15.480;2023-04-03T11:31:26;1.30;;;1.20;;
51925;SDS011;37952;51.938;15.480;2023-04-03T11:34:40;1.60;;;1.40;;
51925;SDS011;37952;51.938;15.480;2023-04-03T11:37:46;2.20;;;1.40;;
51925;SDS011;37952;51.938;15.480;2023-04-03T11:40:53;1.90;;;1.20;;
51925;SDS011;37952;51.938;15.480;2023-04-03T11:43:59;2.00;;;1.40;;
51925;SDS011;37952;51.938;15.480;2023-04-03T11:47:07;1.50;;;1.40;;
51925;SDS011;37952;51.938;15.480;2023-04-03T11:53:44;1.70;;;1.50;;
51925;SDS011;37952;51.938;15.480;2023-04-03T11:56:48;2.60;;;1.80;;
51925;SDS011;37952;51.938;15.480;2023-04-03T11:59:50;2.30;;;2.10;;
51925;SDS011;37952;51.938;15.480;2023-04-03T12:02:53;2.40;;;1.60;;
51925;SDS011;37952;51.938;15.480;2023-04-03T12:09:22;1.50;;;1.30;;
51925;SDS011;37952;51.938;15.480;2023-04-03T12:12:33;1.60;;;1.40;;
51925;SDS011;37952;51.938;15.480;2023-04-03T12:18:48;1.70;;;1.60;;
51925;SDS011;37952;51.938;15.480;2023-04-03T12:25:01;1.60;;;1.20;;
51925;SDS011;37952;51.938;15.480;2023-04-03T12:28:52;1.40;;;1.30;;
51925;SDS011;37952;51.938;15.480;2023-04-03T12:35:31;1.30;;;1.20;;
51925;SDS011;37952;51.938;15.480;2023-04-03T12:38:41;1.70;;;1.60;;
51925;SDS011;37952;51.938;15.480;2023-04-03T12:45:22;3.30;;;1.30;;
51925;SDS011;37952;51.938;15.480;2023-04-03T12:48:27;1.70;;;1.40;;
51925;SDS011;37952;51.938;15.480;2023-04-03T12:51:42;1.80;;;1.20;;
51925;SDS011;37952;51.938;15.480;2023-04-03T12:54:46;2.70;;;1.30;;
51925;SDS011;37952;51.938;15.480;2023-04-03T12:57:50;1.30;;;1.20;;
51925;SDS011;37952;51.938;15.480;2023-04-03T13:01:00;1.50;;;1.30;;
51925;SDS011;37952;51.938;15.480;2023-04-03T13:04:12;1.20;;;1.10;;
51925;SDS011;37952;51.938;15.480;2023-04-03T13:07:19;5.20;;;1.30;;
51925;SDS011;37952;51.938;15.480;2023-04-03T13:10:55;1.10;;;1.00;;
51925;SDS011;37952;51.938;15.480;2023-04-03T13:14:17;1.50;;;0.90;;
51925;SDS011;37952;51.938;15.480;2023-04-03T13:17:22;1.00;;;0.90;;
51925;SDS011;37952;51.938;15.480;2023-04-03T13:20:26;3.10;;;1.20;;
51925;SDS011;37952;51.938;15.480;2023-04-03T13:26:54;1.80;;;1.60;;
51925;SDS011;37952;51.938;15.480;2023-04-03T13:29:58;1.30;;;1.20;;
51925;SDS011;37952;51.938;15.480;2023-04-03T13:33:04;1.80;;;1.40;;
51925;SDS011;37952;51.938;15.480;2023-04-03T13:36:19;1.70;;;1.10;;
51925;SDS011;37952;51.938;15.480;2023-04-03T13:39:29;3.00;;;1.30;;
51925;SDS011;37952;51.938;15.480;2023-04-03T13:42:40;1.70;;;1.10;;
51925;SDS011;37952;51.938;15.480;2023-04-03T13:49:32;2.70;;;2.00;;
51925;SDS011;37952;51.938;15.480;2023-04-03T13:52:43;1.60;;;1.50;;
51925;SDS011;37952;51.938;15.480;2023-04-03T13:56:37;1.90;;;1.70;;
51925;SDS011;37952;51.938;15.480;2023-04-03T14:02:32;2.40;;;1.90;;
51925;SDS011;37952;51.938;15.480;2023-04-03T14:05:36;2.90;;;2.20;;
51925;SDS011;37952;51.938;15.480;2023-04-03T14:08:39;1.70;;;1.50;;
51925;SDS011;37952;51.938;15.480;2023-04-03T14:11:46;1.10;;;1.00;;
51925;SDS011;37952;51.938;15.480;2023-04-03T14:14:50;2.00;;;1.50;;
51925;SDS011;37952;51.938;15.480;2023-04-03T14:17:53;4.00;;;1.90;;
51925;SDS011;37952;51.938;15.480;2023-04-03T14:20:57;3.80;;;2.00;;
51925;SDS011;37952;51.938;15.480;2023-04-03T14:24:00;1.50;;;1.40;;
51925;SDS011;37952;51.938;15.480;2023-04-03T14:27:05;2.20;;;1.50;;
51925;SDS011;37952;51.938;15.480;2023-04-03T14:33:22;1.10;;;1.00;;
51925;SDS011;37952;51.938;15.480;2023-04-03T14:36:25;1.50;;;1.40;;
51925;SDS011;37952;51.938;15.480;2023-04-03T14:39:30;2.00;;;1.20;;
51925;SDS011;37952;51.938;15.480;2023-04-03T14:42:34;1.60;;;1.10;;
51925;SDS011;37952;51.938;15.480;2023-04-03T14:45:39;1.50;;;1.40;;
51925;SDS011;37952;51.938;15.480;2023-04-03T14:48:42;3.30;;;1.50;;
51925;SDS011;37952;51.938;15.480;2023-04-03T14:51:45;2.70;;;1.40;;
51925;SDS011;37952;51.938;15.480;2023-04-03T14:54:51;2.00;;;1.60;;
51925;SDS011;37952;51.938;15.480;2023-04-03T14:57:54;1.70;;;1.20;;
51925;SDS011;37952;51.938;15.480;2023-04-03T15:00:57;4.20;;;1.00;;
51925;SDS011;37952;51.938;15.480;2023-04-03T15:04:00;1.40;;;1.10;;
51925;SDS011;37952;51.938;15.480;2023-04-03T15:10:19;1.40;;;1.30;;
51925;SDS011;37952;51.938;15.480;2023-04-03T15:13:24;2.20;;;1.40;;
51925;SDS011;37952;51.938;15.480;2023-04-03T15:16:27;1.80;;;1.10;;
51925;SDS011;37952;51.938;15.480;2023-04-03T15:19:35;1.50;;;1.10;;
51925;SDS011;37952;51.938;15.480;2023-04-03T15:22:40;6.80;;;1.20;;
51925;SDS011;37952;51.938;15.480;2023-04-03T15:25:43;1.40;;;1.20;;
51925;SDS011;37952;51.938;15.480;2023-04-03T15:28:51;3.70;;;1.40;;
51925;SDS011;37952;51.938;15.480;2023-04-03T15:31:53;2.10;;;1.40;;
51925;SDS011;37952;51.938;15.480;2023-04-03T15:34:56;2.40;;;2.20;;
51925;SDS011;37952;51.938;15.480;2023-04-03T15:37:59;1.50;;;1.40;;
51925;SDS011;37952;51.938;15.480;2023-04-03T15:41:02;1.70;;;1.60;;
51925;SDS011;37952;51.938;15.480;2023-04-03T15:44:05;2.00;;;1.80;;
51925;SDS011;37952;51.938;15.480;2023-04-03T15:47:07;2.10;;;1.50;;
51925;SDS011;37952;51.938;15.480;2023-04-03T15:50:10;1.50;;;1.10;;
51925;SDS011;37952;51.938;15.480;2023-04-03T15:53:14;1.20;;;1.00;;
51925;SDS011;37952;51.938;15.480;2023-04-03T15:56:16;1.50;;;1.40;;
51925;SDS011;37952;51.938;15.480;2023-04-03T16:02:37;1.50;;;1.40;;
51925;SDS011;37952;51.938;15.480;2023-04-03T16:05:40;1.70;;;1.20;;
51925;SDS011;37952;51.938;15.480;2023-04-03T16:08:43;1.40;;;1.30;;
51925;SDS011;37952;51.938;15.480;2023-04-03T16:11:47;2.10;;;1.90;;
51925;SDS011;37952;51.938;15.480;2023-04-03T16:14:49;2.40;;;1.80;;
51925;SDS011;37952;51.938;15.480;2023-04-03T16:17:53;1.80;;;1.70;;
51925;SDS011;37952;51.938;15.480;2023-04-03T16:20:57;2.20;;;2.00;;
51925;SDS011;37952;51.938;15.480;2023-04-03T16:24:00;3.20;;;2.00;;
51925;SDS011;37952;51.938;15.480;2023-04-03T16:27:03;2.00;;;1.90;;
51925;SDS011;37952;51.938;15.480;2023-04-03T16:30:07;1.40;;;1.30;;
51925;SDS011;37952;51.938;15.480;2023-04-03T16:33:11;1.30;;;1.10;;
51925;SDS011;37952;51.938;15.480;2023-04-03T16:36:15;2.20;;;1.30;;
51925;SDS011;37952;51.938;15.480;2023-04-03T16:39:18;1.60;;;1.50;;
51925;SDS011;37952;51.938;15.480;2023-04-03T16:42:21;7.70;;;1.50;;
51925;SDS011;37952;51.938;15.480;2023-04-03T16:45:24;1.50;;;1.30;;
51925;SDS011;37952;51.938;15.480;2023-04-03T16:48:27;3.20;;;1.60;;
51925;SDS011;37952;51.938;15.480;2023-04-03T16:51:31;1.50;;;1.40;;
51925;SDS011;37952;51.938;15.480;2023-04-03T16:54:34;1.10;;;1.10;;
51925;SDS011;37952;51.938;15.480;2023-04-03T16:57:37;4.90;;;2.10;;
51925;SDS011;37952;51.938;15.480;2023-04-03T17:00:40;1.90;;;1.70;;
51925;SDS011;37952;51.938;15.480;2023-04-03T17:03:44;1.80;;;1.70;;
51925;SDS011;37952;51.938;15.480;2023-04-03T17:06:48;2.30;;;1.80;;
51925;SDS011;37952;51.938;15.480;2023-04-03T17:09:51;2.80;;;2.00;;
51925;SDS011;37952;51.938;15.480;2023-04-03T17:12:56;1.70;;;1.60;;
51925;SDS011;37952;51.938;15.480;2023-04-03T17:15:58;2.00;;;1.90;;
51925;SDS011;37952;51.938;15.480;2023-04-03T17:19:03;1.50;;;1.40;;
51925;SDS011;37952;51.938;15.480;2023-04-03T17:22:07;5.60;;;1.60;;
51925;SDS011;37952;51.938;15.480;2023-04-03T17:25:11;1.60;;;1.50;;
51925;SDS011;37952;51.938;15.480;2023-04-03T17:28:15;2.50;;;1.60;;
51925;SDS011;37952;51.938;15.480;2023-04-03T17:31:18;2.80;;;1.50;;
51925;SDS011;37952;51.938;15.480;2023-04-03T17:34:21;2.40;;;1.30;;
51925;SDS011;37952;51.938;15.480;2023-04-03T17:37:24;1.40;;;1.30;;
51925;SDS011;37952;51.938;15.480;2023-04-03T17:40:27;2.60;;;2.40;;
51925;SDS011;37952;51.938;15.480;2023-04-03T17:43:30;5.10;;;1.90;;
51925;SDS011;37952;51.938;15.480;2023-04-03T17:46:33;3.20;;;2.90;;
51925;SDS011;37952;51.938;15.480;2023-04-03T17:49:36;2.00;;;1.90;;
51925;SDS011;37952;51.938;15.480;2023-04-03T17:52:39;2.60;;;2.40;;
51925;SDS011;37952;51.938;15.480;2023-04-03T17:55:42;3.60;;;3.20;;
51925;SDS011;37952;51.938;15.480;2023-04-03T17:58:45;3.50;;;2.50;;
51925;SDS011;37952;51.938;15.480;2023-04-03T18:01:48;3.00;;;2.80;;
51925;SDS011;37952;51.938;15.480;2023-04-03T18:04:53;3.00;;;2.40;;
51925;SDS011;37952;51.938;15.480;2023-04-03T18:07:55;2.20;;;2.00;;
51925;SDS011;37952;51.938;15.480;2023-04-03T18:11:00;2.30;;;2.10;;
51925;SDS011;37952;51.938;15.480;2023-04-03T18:14:04;2.80;;;2.10;;
51925;SDS011;37952;51.938;15.480;2023-04-03T18:17:09;2.30;;;2.20;;
51925;SDS011;37952;51.938;15.480;2023-04-03T18:23:23;3.80;;;3.50;;
51925;SDS011;37952;51.938;15.480;2023-04-03T18:26:27;3.20;;;2.60;;
51925;SDS011;37952;51.938;15.480;2023-04-03T18:29:32;3.70;;;2.50;;
51925;SDS011;37952;51.938;15.480;2023-04-03T18:32:37;2.40;;;2.30;;
51925;SDS011;37952;51.938;15.480;2023-04-03T18:35:40;3.40;;;3.00;;
51925;SDS011;37952;51.938;15.480;2023-04-03T18:38:43;4.30;;;2.80;;
51925;SDS011;37952;51.938;15.480;2023-04-03T18:41:46;4.40;;;3.30;;
51925;SDS011;37952;51.938;15.480;2023-04-03T18:44:52;4.00;;;3.10;;
51925;SDS011;37952;51.938;15.480;2023-04-03T18:47:59;4.20;;;3.60;;
51925;SDS011;37952;51.938;15.480;2023-04-03T18:51:02;4.50;;;4.10;;
51925;SDS011;37952;51.938;15.480;2023-04-03T18:54:05;4.20;;;3.90;;
51925;SDS011;37952;51.938;15.480;2023-04-03T18:57:11;4.50;;;3.70;;
51925;SDS011;37952;51.938;15.480;2023-04-03T19:00:15;4.70;;;4.10;;
51925;SDS011;37952;51.938;15.480;2023-04-03T19:03:20;4.00;;;3.20;;
51925;SDS011;37952;51.938;15.480;2023-04-03T19:06:23;4.40;;;3.00;;
51925;SDS011;37952;51.938;15.480;2023-04-03T19:09:26;3.70;;;3.20;;
51925;SDS011;37952;51.938;15.480;2023-04-03T19:12:29;5.40;;;3.50;;
51925;SDS011;37952;51.938;15.480;2023-04-03T19:15:32;3.80;;;2.90;;
51925;SDS011;37952;51.938;15.480;2023-04-03T19:18:35;3.70;;;3.30;;
51925;SDS011;37952;51.938;15.480;2023-04-03T19:21:37;4.00;;;3.60;;
51925;SDS011;37952;51.938;15.480;2023-04-03T19:24:43;5.60;;;3.50;;
51925;SDS011;37952;51.938;15.480;2023-04-03T19:27:46;5.50;;;4.00;;
51925;SDS011;37952;51.938;15.480;2023-04-03T19:30:49;3.80;;;3.50;;
51925;SDS011;37952;51.938;15.480;2023-04-03T19:33:53;3.70;;;3.40;;
51925;SDS011;37952;51.938;15.480;2023-04-03T19:40:06;4.50;;;4.00;;
51925;SDS011;37952;51.938;15.480;2023-04-03T19:43:12;5.90;;;4.40;;
51925;SDS011;37952;51.938;15.480;2023-04-03T19:46:18;4.90;;;4.00;;
51925;SDS011;37952;51.938;15.480;2023-04-03T19:49:23;7.50;;;5.60;;
51925;SDS011;37952;51.938;15.480;2023-04-03T19:52:34;7.20;;;5.30;;
51925;SDS011;37952;51.938;15.480;2023-04-03T19:55:37;8.40;;;6.30;;
51925;SDS011;37952;51.938;15.480;2023-04-03T19:58:40;13.50;;;7.20;;
51925;SDS011;37952;51.938;15.480;2023-04-03T20:01:44;9.80;;;6.50;;
51925;SDS011;37952;51.938;15.480;2023-04-03T20:04:47;7.40;;;6.40;;